sensor_id;sensor_type;location;lat;lon;timestamp;P1;durP1;ratioP1;P2;durP2;ratioP2
58354;SDS011;44160;49.080;19.302;2023-07-02T00:00:36;8.70;;;7.90;;
58354;SDS011;44160;49.080;19.302;2023-07-02T00:03:04;9.30;;;8.30;;
58354;SDS011;44160;49.080;19.302;2023-07-02T00:05:30;9.27;;;8.35;;
58354;SDS011;44160;49.080;19.302;2023-07-02T00:07:56;8.27;;;7.45;;
58354;SDS011;44160;49.080;19.302;2023-07-02T00:10:22;8.48;;;7.68;;
58354;SDS011;44160;49.080;19.302;2023-07-02T00:12:48;7.78;;;6.95;;
58354;SDS011;44160;49.080;19.302;2023-07-02T00:15:16;8.07;;;6.55;;
58354;SDS011;44160;49.080;19.302;2023-07-02T00:17:42;9.25;;;8.18;;
58354;SDS011;44160;49.080;19.302;2023-07-02T00:20:08;9.85;;;7.80;;
58354;SDS011;44160;49.080;19.302;2023-07-02T00:22:40;10.63;;;7.97;;
58354;SDS011;44160;49.080;19.302;2023-07-02T00:25:12;9.35;;;8.38;;
58354;SDS011;44160;49.080;19.302;2023-07-02T00:27:38;8.57;;;7.60;;
58354;SDS011;44160;49.080;19.302;2023-07-02T00:30:05;7.43;;;6.70;;
58354;SDS011;44160;49.080;19.302;2023-07-02T00:32:31;9.10;;;6.80;;
58354;SDS011;44160;49.080;19.302;2023-07-02T00:34:57;7.80;;;7.03;;
58354;SDS011;44160;49.080;19.302;2023-07-02T00:37:24;12.50;;;8.13;;
58354;SDS011;44160;49.080;19.302;2023-07-02T00:39:50;8.82;;;7.95;;
58354;SDS011;44160;49.080;19.302;2023-07-02T00:42:17;9.20;;;8.07;;
58354;SDS011;44160;49.080;19.302;2023-07-02T00:44:43;8.50;;;7.35;;
58354;SDS011;44160;49.080;19.302;2023-07-02T00:47:11;10.85;;;7.13;;
58354;SDS011;44160;49.080;19.302;2023-07-02T00:49:37;8.20;;;6.22;;
58354;SDS011;44160;49.080;19.302;2023-07-02T00:52:05;7.45;;;6.50;;
58354;SDS011;44160;49.080;19.302;2023-07-02T00:54:31;7.68;;;6.63;;
58354;SDS011;44160;49.080;19.302;2023-07-02T00:56:57;7.50;;;5.93;;
58354;SDS011;44160;49.080;19.302;2023-07-02T00:59:27;8.45;;;6.03;;
58354;SDS011;44160;49.080;19.302;2023-07-02T01:01:54;6.35;;;5.65;;
58354;SDS011;44160;49.080;19.302;2023-07-02T01:04:21;6.50;;;5.80;;
58354;SDS011;44160;49.080;19.302;2023-07-02T01:06:52;7.32;;;5.95;;
58354;SDS011;44160;49.080;19.302;2023-07-02T01:09:22;6.53;;;5.80;;
58354;SDS011;44160;49.080;19.302;2023-07-02T01:11:51;7.55;;;6.05;;
58354;SDS011;44160;49.080;19.302;2023-07-02T01:16:48;8.52;;;6.47;;
58354;SDS011;44160;49.080;19.302;2023-07-02T01:19:22;10.82;;;6.20;;
58354;SDS011;44160;49.080;19.302;2023-07-02T01:21:51;6.43;;;5.47;;
58354;SDS011;44160;49.080;19.302;2023-07-02T01:24:17;10.30;;;7.72;;
58354;SDS011;44160;49.080;19.302;2023-07-02T01:26:46;12.15;;;7.97;;
58354;SDS011;44160;49.080;19.302;2023-07-02T01:29:15;13.32;;;8.50;;
58354;SDS011;44160;49.080;19.302;2023-07-02T01:31:42;9.98;;;7.75;;
58354;SDS011;44160;49.080;19.302;2023-07-02T01:34:09;11.07;;;8.07;;
58354;SDS011;44160;49.080;19.302;2023-07-02T01:36:36;9.77;;;8.02;;
58354;SDS011;44160;49.080;19.302;2023-07-02T01:39:02;6.72;;;6.03;;
58354;SDS011;44160;49.080;19.302;2023-07-02T01:41:28;7.18;;;6.13;;
58354;SDS011;44160;49.080;19.302;2023-07-02T01:43:54;9.10;;;6.18;;
58354;SDS011;44160;49.080;19.302;2023-07-02T01:46:21;6.85;;;5.63;;
58354;SDS011;44160;49.080;19.302;2023-07-02T01:48:47;8.90;;;6.40;;
58354;SDS011;44160;49.080;19.302;2023-07-02T01:51:13;7.03;;;5.47;;
58354;SDS011;44160;49.080;19.302;2023-07-02T01:53:39;7.00;;;6.30;;
58354;SDS011;44160;49.080;19.302;2023-07-02T01:56:05;7.15;;;6.22;;
58354;SDS011;44160;49.080;19.302;2023-07-02T01:58:31;6.47;;;5.80;;
58354;SDS011;44160;49.080;19.302;2023-07-02T02:00:57;9.02;;;6.60;;
58354;SDS011;44160;49.080;19.302;2023-07-02T02:03:23;10.57;;;6.32;;
58354;SDS011;44160;49.080;19.302;2023-07-02T02:05:49;8.93;;;7.00;;
58354;SDS011;44160;49.080;19.302;2023-07-02T02:08:15;8.48;;;6.43;;
58354;SDS011;44160;49.080;19.302;2023-07-02T02:10:41;9.65;;;7.63;;
58354;SDS011;44160;49.080;19.302;2023-07-02T02:13:07;7.25;;;6.20;;
58354;SDS011;44160;49.080;19.302;2023-07-02T02:15:33;7.13;;;5.82;;
58354;SDS011;44160;49.080;19.302;2023-07-02T02:18:00;8.93;;;6.40;;
58354;SDS011;44160;49.080;19.302;2023-07-02T02:20:26;7.47;;;6.45;;
58354;SDS011;44160;49.080;19.302;2023-07-02T02:22:52;7.10;;;6.40;;
58354;SDS011;44160;49.080;19.302;2023-07-02T02:25:18;8.25;;;6.95;;
58354;SDS011;44160;49.080;19.302;2023-07-02T02:27:44;8.35;;;6.70;;
58354;SDS011;44160;49.080;19.302;2023-07-02T02:30:10;7.35;;;6.50;;
58354;SDS011;44160;49.080;19.302;2023-07-02T02:32:36;14.02;;;8.07;;
58354;SDS011;44160;49.080;19.302;2023-07-02T02:35:02;8.40;;;7.57;;
58354;SDS011;44160;49.080;19.302;2023-07-02T02:37:28;10.43;;;7.82;;
58354;SDS011;44160;49.080;19.302;2023-07-02T02:39:55;8.73;;;7.70;;
58354;SDS011;44160;49.080;19.302;2023-07-02T02:42:22;7.72;;;6.75;;
58354;SDS011;44160;49.080;19.302;2023-07-02T02:44:49;9.13;;;7.30;;
58354;SDS011;44160;49.080;19.302;2023-07-02T02:47:15;13.57;;;8.00;;
58354;SDS011;44160;49.080;19.302;2023-07-02T02:49:41;9.77;;;7.65;;
58354;SDS011;44160;49.080;19.302;2023-07-02T02:52:07;8.88;;;7.95;;
58354;SDS011;44160;49.080;19.302;2023-07-02T02:54:33;11.32;;;7.97;;
58354;SDS011;44160;49.080;19.302;2023-07-02T02:56:59;8.90;;;7.63;;
58354;SDS011;44160;49.080;19.302;2023-07-02T02:59:25;9.82;;;7.25;;
58354;SDS011;44160;49.080;19.302;2023-07-02T03:01:51;9.48;;;7.20;;
58354;SDS011;44160;49.080;19.302;2023-07-02T03:04:17;9.73;;;6.85;;
58354;SDS011;44160;49.080;19.302;2023-07-02T03:06:43;7.57;;;6.88;;
58354;SDS011;44160;49.080;19.302;2023-07-02T03:09:09;7.22;;;6.50;;
58354;SDS011;44160;49.080;19.302;2023-07-02T03:11:35;9.07;;;7.18;;
58354;SDS011;44160;49.080;19.302;2023-07-02T03:14:01;11.20;;;7.20;;
58354;SDS011;44160;49.080;19.302;2023-07-02T03:16:27;8.88;;;7.55;;
58354;SDS011;44160;49.080;19.302;2023-07-02T03:18:53;10.70;;;7.47;;
58354;SDS011;44160;49.080;19.302;2023-07-02T03:21:19;7.55;;;6.72;;
58354;SDS011;44160;49.080;19.302;2023-07-02T03:23:45;7.47;;;6.68;;
58354;SDS011;44160;49.080;19.302;2023-07-02T03:26:11;7.68;;;6.68;;
58354;SDS011;44160;49.080;19.302;2023-07-02T03:28:37;8.32;;;7.47;;
58354;SDS011;44160;49.080;19.302;2023-07-02T03:31:03;10.95;;;7.18;;
58354;SDS011;44160;49.080;19.302;2023-07-02T03:33:29;8.75;;;6.97;;
58354;SDS011;44160;49.080;19.302;2023-07-02T03:35:55;13.27;;;7.65;;
58354;SDS011;44160;49.080;19.302;2023-07-02T03:38:21;8.45;;;6.78;;
58354;SDS011;44160;49.080;19.302;2023-07-02T03:40:47;9.30;;;7.03;;
58354;SDS011;44160;49.080;19.302;2023-07-02T03:43:13;7.72;;;6.93;;
58354;SDS011;44160;49.080;19.302;2023-07-02T03:45:39;7.07;;;6.38;;
58354;SDS011;44160;49.080;19.302;2023-07-02T03:48:05;8.38;;;6.40;;
58354;SDS011;44160;49.080;19.302;2023-07-02T03:50:31;8.98;;;6.50;;
58354;SDS011;44160;49.080;19.302;2023-07-02T03:52:57;9.80;;;7.05;;
58354;SDS011;44160;49.080;19.302;2023-07-02T03:55:24;8.27;;;6.97;;
58354;SDS011;44160;49.080;19.302;2023-07-02T03:57:50;8.60;;;6.97;;
58354;SDS011;44160;49.080;19.302;2023-07-02T04:00:16;8.05;;;6.80;;
58354;SDS011;44160;49.080;19.302;2023-07-02T04:02:42;9.60;;;6.30;;
58354;SDS011;44160;49.080;19.302;2023-07-02T04:05:08;10.82;;;6.57;;
58354;SDS011;44160;49.080;19.302;2023-07-02T04:07:34;10.60;;;7.30;;
58354;SDS011;44160;49.080;19.302;2023-07-02T04:10:00;7.55;;;6.82;;
58354;SDS011;44160;49.080;19.302;2023-07-02T04:12:27;8.85;;;7.63;;
58354;SDS011;44160;49.080;19.302;2023-07-02T04:14:53;8.07;;;7.28;;
58354;SDS011;44160;49.080;19.302;2023-07-02T04:17:19;8.75;;;7.63;;
58354;SDS011;44160;49.080;19.302;2023-07-02T04:19:45;8.00;;;7.10;;
58354;SDS011;44160;49.080;19.302;2023-07-02T04:22:11;8.27;;;7.25;;
58354;SDS011;44160;49.080;19.302;2023-07-02T04:24:37;10.30;;;6.97;;
58354;SDS011;44160;49.080;19.302;2023-07-02T04:27:03;9.43;;;7.90;;
58354;SDS011;44160;49.080;19.302;2023-07-02T04:29:30;10.05;;;8.00;;
58354;SDS011;44160;49.080;19.302;2023-07-02T04:31:56;8.60;;;7.70;;
58354;SDS011;44160;49.080;19.302;2023-07-02T04:34:22;8.68;;;7.78;;
58354;SDS011;44160;49.080;19.302;2023-07-02T04:36:48;11.15;;;8.05;;
58354;SDS011;44160;49.080;19.302;2023-07-02T04:39:14;9.73;;;8.73;;
58354;SDS011;44160;49.080;19.302;2023-07-02T04:41:40;11.90;;;9.75;;
58354;SDS011;44160;49.080;19.302;2023-07-02T04:44:06;12.30;;;9.95;;
58354;SDS011;44160;49.080;19.302;2023-07-02T04:46:33;11.23;;;9.55;;
58354;SDS011;44160;49.080;19.302;2023-07-02T04:48:59;12.00;;;9.63;;
58354;SDS011;44160;49.080;19.302;2023-07-02T04:51:25;12.13;;;10.05;;
58354;SDS011;44160;49.080;19.302;2023-07-02T04:53:51;12.38;;;10.27;;
58354;SDS011;44160;49.080;19.302;2023-07-02T04:56:17;11.10;;;9.77;;
58354;SDS011;44160;49.080;19.302;2023-07-02T04:58:43;11.48;;;9.73;;
58354;SDS011;44160;49.080;19.302;2023-07-02T05:01:09;14.98;;;11.07;;
58354;SDS011;44160;49.080;19.302;2023-07-02T05:03:36;12.15;;;9.90;;
58354;SDS011;44160;49.080;19.302;2023-07-02T05:06:03;13.20;;;10.35;;
58354;SDS011;44160;49.080;19.302;2023-07-02T05:08:29;14.10;;;10.98;;
58354;SDS011;44160;49.080;19.302;2023-07-02T05:10:55;11.32;;;10.13;;
58354;SDS011;44160;49.080;19.302;2023-07-02T05:13:21;15.95;;;11.32;;
58354;SDS011;44160;49.080;19.302;2023-07-02T05:15:47;16.02;;;10.75;;
58354;SDS011;44160;49.080;19.302;2023-07-02T05:18:14;10.98;;;9.52;;
58354;SDS011;44160;49.080;19.302;2023-07-02T05:20:40;10.48;;;9.18;;
58354;SDS011;44160;49.080;19.302;2023-07-02T05:23:06;12.55;;;9.35;;
58354;SDS011;44160;49.080;19.302;2023-07-02T05:25:32;11.98;;;9.63;;
58354;SDS011;44160;49.080;19.302;2023-07-02T05:27:58;11.07;;;9.93;;
58354;SDS011;44160;49.080;19.302;2023-07-02T05:30:24;12.55;;;9.13;;
58354;SDS011;44160;49.080;19.302;2023-07-02T05:32:50;10.75;;;9.27;;
58354;SDS011;44160;49.080;19.302;2023-07-02T05:35:16;10.02;;;8.93;;
58354;SDS011;44160;49.080;19.302;2023-07-02T05:37:42;11.65;;;9.35;;
58354;SDS011;44160;49.080;19.302;2023-07-02T05:40:10;11.57;;;9.60;;
58354;SDS011;44160;49.080;19.302;2023-07-02T05:42:36;10.15;;;9.00;;
58354;SDS011;44160;49.080;19.302;2023-07-02T05:45:03;11.63;;;8.50;;
58354;SDS011;44160;49.080;19.302;2023-07-02T05:47:29;10.40;;;7.82;;
58354;SDS011;44160;49.080;19.302;2023-07-02T05:49:55;9.20;;;7.68;;
58354;SDS011;44160;49.080;19.302;2023-07-02T05:52:21;8.55;;;6.60;;
58354;SDS011;44160;49.080;19.302;2023-07-02T05:54:47;8.68;;;6.95;;
58354;SDS011;44160;49.080;19.302;2023-07-02T05:57:13;10.35;;;6.80;;
58354;SDS011;44160;49.080;19.302;2023-07-02T05:59:39;8.32;;;6.32;;
58354;SDS011;44160;49.080;19.302;2023-07-02T06:02:05;8.05;;;6.78;;
58354;SDS011;44160;49.080;19.302;2023-07-02T06:04:31;7.22;;;6.05;;
58354;SDS011;44160;49.080;19.302;2023-07-02T06:06:57;8.30;;;6.50;;
58354;SDS011;44160;49.080;19.302;2023-07-02T06:09:23;8.48;;;5.70;;
58354;SDS011;44160;49.080;19.302;2023-07-02T06:11:50;9.68;;;5.97;;
58354;SDS011;44160;49.080;19.302;2023-07-02T06:14:16;8.63;;;6.72;;
58354;SDS011;44160;49.080;19.302;2023-07-02T06:16:42;9.63;;;6.63;;
58354;SDS011;44160;49.080;19.302;2023-07-02T06:19:08;6.95;;;5.40;;
58354;SDS011;44160;49.080;19.302;2023-07-02T06:21:34;8.07;;;6.45;;
58354;SDS011;44160;49.080;19.302;2023-07-02T06:24:00;9.00;;;6.13;;
58354;SDS011;44160;49.080;19.302;2023-07-02T06:26:27;6.82;;;5.63;;
58354;SDS011;44160;49.080;19.302;2023-07-02T06:28:53;7.50;;;5.75;;
58354;SDS011;44160;49.080;19.302;2023-07-02T06:31:19;7.10;;;5.18;;
58354;SDS011;44160;49.080;19.302;2023-07-02T06:33:45;8.20;;;6.18;;
58354;SDS011;44160;49.080;19.302;2023-07-02T06:36:11;9.23;;;5.10;;
58354;SDS011;44160;49.080;19.302;2023-07-02T06:38:38;8.43;;;5.50;;
58354;SDS011;44160;49.080;19.302;2023-07-02T06:41:04;7.82;;;5.82;;
58354;SDS011;44160;49.080;19.302;2023-07-02T06:43:30;5.95;;;5.15;;
58354;SDS011;44160;49.080;19.302;2023-07-02T06:45:56;6.90;;;5.22;;
58354;SDS011;44160;49.080;19.302;2023-07-02T06:48:22;9.57;;;6.30;;
58354;SDS011;44160;49.080;19.302;2023-07-02T06:50:49;6.10;;;5.20;;
58354;SDS011;44160;49.080;19.302;2023-07-02T06:53:15;8.18;;;4.97;;
58354;SDS011;44160;49.080;19.302;2023-07-02T06:55:41;6.35;;;5.22;;
58354;SDS011;44160;49.080;19.302;2023-07-02T06:58:07;6.45;;;5.15;;
58354;SDS011;44160;49.080;19.302;2023-07-02T07:00:33;6.65;;;4.90;;
58354;SDS011;44160;49.080;19.302;2023-07-02T07:03:03;6.80;;;5.32;;
58354;SDS011;44160;49.080;19.302;2023-07-02T07:05:30;6.20;;;4.53;;
58354;SDS011;44160;49.080;19.302;2023-07-02T07:07:56;5.50;;;4.85;;
58354;SDS011;44160;49.080;19.302;2023-07-02T07:10:22;6.18;;;5.05;;
58354;SDS011;44160;49.080;19.302;2023-07-02T07:12:48;10.18;;;4.82;;
58354;SDS011;44160;49.080;19.302;2023-07-02T07:15:14;5.68;;;4.28;;
58354;SDS011;44160;49.080;19.302;2023-07-02T07:17:40;5.78;;;3.70;;
58354;SDS011;44160;49.080;19.302;2023-07-02T07:20:07;6.20;;;3.47;;
58354;SDS011;44160;49.080;19.302;2023-07-02T07:22:34;5.97;;;3.50;;
58354;SDS011;44160;49.080;19.302;2023-07-02T07:25:00;4.28;;;3.22;;
58354;SDS011;44160;49.080;19.302;2023-07-02T07:27:26;6.25;;;3.65;;
58354;SDS011;44160;49.080;19.302;2023-07-02T07:29:52;6.00;;;3.30;;
58354;SDS011;44160;49.080;19.302;2023-07-02T07:32:19;4.70;;;3.08;;
58354;SDS011;44160;49.080;19.302;2023-07-02T07:34:45;5.50;;;3.50;;
58354;SDS011;44160;49.080;19.302;2023-07-02T07:37:11;5.65;;;3.25;;
58354;SDS011;44160;49.080;19.302;2023-07-02T07:39:37;6.10;;;3.70;;
58354;SDS011;44160;49.080;19.302;2023-07-02T07:42:04;4.18;;;3.13;;
58354;SDS011;44160;49.080;19.302;2023-07-02T07:44:30;5.68;;;3.33;;
58354;SDS011;44160;49.080;19.302;2023-07-02T07:46:56;3.00;;;2.63;;
58354;SDS011;44160;49.080;19.302;2023-07-02T07:49:22;5.68;;;3.47;;
58354;SDS011;44160;49.080;19.302;2023-07-02T07:51:48;4.35;;;3.08;;
58354;SDS011;44160;49.080;19.302;2023-07-02T07:54:14;4.55;;;3.40;;
58354;SDS011;44160;49.080;19.302;2023-07-02T07:56:40;4.65;;;3.67;;
58354;SDS011;44160;49.080;19.302;2023-07-02T07:59:06;4.28;;;3.28;;
58354;SDS011;44160;49.080;19.302;2023-07-02T08:01:32;5.53;;;3.72;;
58354;SDS011;44160;49.080;19.302;2023-07-02T08:03:58;4.70;;;3.63;;
58354;SDS011;44160;49.080;19.302;2023-07-02T08:06:24;5.43;;;3.67;;
58354;SDS011;44160;49.080;19.302;2023-07-02T08:08:50;11.38;;;4.30;;
58354;SDS011;44160;49.080;19.302;2023-07-02T08:11:16;5.68;;;3.90;;
58354;SDS011;44160;49.080;19.302;2023-07-02T08:13:42;5.72;;;3.83;;
58354;SDS011;44160;49.080;19.302;2023-07-02T08:16:08;5.00;;;3.72;;
58354;SDS011;44160;49.080;19.302;2023-07-02T08:18:35;6.70;;;3.88;;
58354;SDS011;44160;49.080;19.302;2023-07-02T08:21:01;8.35;;;3.95;;
58354;SDS011;44160;49.080;19.302;2023-07-02T08:23:27;5.50;;;4.22;;
58354;SDS011;44160;49.080;19.302;2023-07-02T08:25:53;5.53;;;4.05;;
58354;SDS011;44160;49.080;19.302;2023-07-02T08:28:19;6.75;;;4.00;;
58354;SDS011;44160;49.080;19.302;2023-07-02T08:30:45;5.53;;;4.15;;
58354;SDS011;44160;49.080;19.302;2023-07-02T08:33:11;4.72;;;3.70;;
58354;SDS011;44160;49.080;19.302;2023-07-02T08:35:37;7.22;;;3.85;;
58354;SDS011;44160;49.080;19.302;2023-07-02T08:38:03;7.60;;;3.92;;
58354;SDS011;44160;49.080;19.302;2023-07-02T08:40:29;6.43;;;4.20;;
58354;SDS011;44160;49.080;19.302;2023-07-02T08:42:55;6.68;;;4.10;;
58354;SDS011;44160;49.080;19.302;2023-07-02T08:45:23;6.63;;;3.60;;
58354;SDS011;44160;49.080;19.302;2023-07-02T08:47:50;6.25;;;4.30;;
58354;SDS011;44160;49.080;19.302;2023-07-02T08:50:20;5.72;;;3.97;;
58354;SDS011;44160;49.080;19.302;2023-07-02T08:52:46;5.28;;;4.00;;
58354;SDS011;44160;49.080;19.302;2023-07-02T08:55:12;7.78;;;3.78;;
58354;SDS011;44160;49.080;19.302;2023-07-02T08:57:38;6.13;;;3.80;;
58354;SDS011;44160;49.080;19.302;2023-07-02T09:00:10;6.45;;;4.35;;
58354;SDS011;44160;49.080;19.302;2023-07-02T09:02:36;5.18;;;3.63;;
58354;SDS011;44160;49.080;19.302;2023-07-02T09:05:04;7.65;;;3.78;;
58354;SDS011;44160;49.080;19.302;2023-07-02T09:07:30;5.97;;;3.80;;
58354;SDS011;44160;49.080;19.302;2023-07-02T09:09:56;5.32;;;4.15;;
58354;SDS011;44160;49.080;19.302;2023-07-02T09:12:26;4.82;;;3.85;;
58354;SDS011;44160;49.080;19.302;2023-07-02T09:17:19;6.13;;;3.85;;
58354;SDS011;44160;49.080;19.302;2023-07-02T09:19:50;8.18;;;4.20;;
58354;SDS011;44160;49.080;19.302;2023-07-02T09:22:16;7.80;;;4.40;;
58354;SDS011;44160;49.080;19.302;2023-07-02T09:24:50;7.57;;;4.50;;
58354;SDS011;44160;49.080;19.302;2023-07-02T09:27:17;6.93;;;4.05;;
58354;SDS011;44160;49.080;19.302;2023-07-02T09:29:43;9.52;;;4.97;;
58354;SDS011;44160;49.080;19.302;2023-07-02T09:32:09;10.23;;;7.75;;
58354;SDS011;44160;49.080;19.302;2023-07-02T09:34:38;6.63;;;4.85;;
58354;SDS011;44160;49.080;19.302;2023-07-02T09:37:06;6.95;;;5.00;;
58354;SDS011;44160;49.080;19.302;2023-07-02T09:39:35;7.65;;;5.20;;
58354;SDS011;44160;49.080;19.302;2023-07-02T09:42:02;5.20;;;4.00;;
58354;SDS011;44160;49.080;19.302;2023-07-02T09:44:31;8.25;;;4.35;;
58354;SDS011;44160;49.080;19.302;2023-07-02T09:47:01;6.15;;;4.47;;
58354;SDS011;44160;49.080;19.302;2023-07-02T09:49:34;5.90;;;4.03;;
58354;SDS011;44160;49.080;19.302;2023-07-02T09:52:01;5.80;;;4.15;;
58354;SDS011;44160;49.080;19.302;2023-07-02T09:54:28;5.47;;;4.18;;
58354;SDS011;44160;49.080;19.302;2023-07-02T09:56:55;8.15;;;4.82;;
58354;SDS011;44160;49.080;19.302;2023-07-02T09:59:22;8.60;;;4.45;;
58354;SDS011;44160;49.080;19.302;2023-07-02T10:01:49;7.60;;;4.10;;
58354;SDS011;44160;49.080;19.302;2023-07-02T10:04:16;5.65;;;4.55;;
58354;SDS011;44160;49.080;19.302;2023-07-02T10:06:49;7.73;;;3.83;;
58354;SDS011;44160;49.080;19.302;2023-07-02T10:09:16;8.05;;;4.15;;
58354;SDS011;44160;49.080;19.302;2023-07-02T10:11:42;10.88;;;4.30;;
58354;SDS011;44160;49.080;19.302;2023-07-02T10:14:08;5.97;;;4.72;;
58354;SDS011;44160;49.080;19.302;2023-07-02T10:16:34;5.90;;;4.25;;
58354;SDS011;44160;49.080;19.302;2023-07-02T10:19:12;11.70;;;4.40;;
58354;SDS011;44160;49.080;19.302;2023-07-02T10:21:39;7.55;;;4.72;;
58354;SDS011;44160;49.080;19.302;2023-07-02T10:24:08;5.88;;;3.97;;
58354;SDS011;44160;49.080;19.302;2023-07-02T10:26:34;5.45;;;3.70;;
58354;SDS011;44160;49.080;19.302;2023-07-02T10:29:00;10.10;;;4.45;;
58354;SDS011;44160;49.080;19.302;2023-07-02T10:31:27;6.13;;;4.13;;
58354;SDS011;44160;49.080;19.302;2023-07-02T10:33:53;6.45;;;4.70;;
58354;SDS011;44160;49.080;19.302;2023-07-02T10:36:23;18.52;;;4.88;;
58354;SDS011;44160;49.080;19.302;2023-07-02T10:38:50;17.65;;;6.05;;
58354;SDS011;44160;49.080;19.302;2023-07-02T10:41:23;4.65;;;3.72;;
58354;SDS011;44160;49.080;19.302;2023-07-02T10:43:49;7.13;;;4.68;;
58354;SDS011;44160;49.080;19.302;2023-07-02T10:46:19;5.93;;;4.25;;
58354;SDS011;44160;49.080;19.302;2023-07-02T10:48:52;4.85;;;3.88;;
58354;SDS011;44160;49.080;19.302;2023-07-02T10:51:18;5.75;;;3.40;;
58354;SDS011;44160;49.080;19.302;2023-07-02T10:53:46;5.57;;;4.22;;
58354;SDS011;44160;49.080;19.302;2023-07-02T10:56:15;6.18;;;3.50;;
58354;SDS011;44160;49.080;19.302;2023-07-02T10:58:42;7.68;;;3.30;;
58354;SDS011;44160;49.080;19.302;2023-07-02T11:01:09;5.18;;;3.10;;
58354;SDS011;44160;49.080;19.302;2023-07-02T11:03:35;3.95;;;2.90;;
58354;SDS011;44160;49.080;19.302;2023-07-02T11:06:01;4.60;;;3.03;;
58354;SDS011;44160;49.080;19.302;2023-07-02T11:08:36;5.38;;;2.53;;
58354;SDS011;44160;49.080;19.302;2023-07-02T11:11:09;4.72;;;2.72;;
58354;SDS011;44160;49.080;19.302;2023-07-02T11:13:43;2.83;;;2.30;;
58354;SDS011;44160;49.080;19.302;2023-07-02T11:16:31;7.28;;;2.47;;
58354;SDS011;44160;49.080;19.302;2023-07-02T11:19:08;4.50;;;2.55;;
58354;SDS011;44160;49.080;19.302;2023-07-02T11:21:34;5.47;;;2.80;;
58354;SDS011;44160;49.080;19.302;2023-07-02T11:24:01;3.40;;;2.33;;
58354;SDS011;44160;49.080;19.302;2023-07-02T11:26:34;4.63;;;2.25;;
58354;SDS011;44160;49.080;19.302;2023-07-02T11:29:00;4.45;;;2.00;;
58354;SDS011;44160;49.080;19.302;2023-07-02T11:31:26;4.10;;;2.92;;
58354;SDS011;44160;49.080;19.302;2023-07-02T11:33:52;4.53;;;2.65;;
58354;SDS011;44160;49.080;19.302;2023-07-02T11:36:19;3.80;;;2.50;;
58354;SDS011;44160;49.080;19.302;2023-07-02T11:38:46;2.65;;;2.13;;
58354;SDS011;44160;49.080;19.302;2023-07-02T11:41:12;3.88;;;2.40;;
58354;SDS011;44160;49.080;19.302;2023-07-02T11:43:38;4.15;;;2.53;;
58354;SDS011;44160;49.080;19.302;2023-07-02T11:46:04;3.72;;;2.35;;
58354;SDS011;44160;49.080;19.302;2023-07-02T11:48:30;3.95;;;2.47;;
58354;SDS011;44160;49.080;19.302;2023-07-02T11:50:56;3.55;;;2.33;;
58354;SDS011;44160;49.080;19.302;2023-07-02T11:53:22;4.50;;;2.40;;
58354;SDS011;44160;49.080;19.302;2023-07-02T11:55:49;2.92;;;1.95;;
58354;SDS011;44160;49.080;19.302;2023-07-02T11:58:15;2.55;;;2.00;;
58354;SDS011;44160;49.080;19.302;2023-07-02T12:00:41;3.97;;;2.40;;
58354;SDS011;44160;49.080;19.302;2023-07-02T12:03:07;2.33;;;2.10;;
58354;SDS011;44160;49.080;19.302;2023-07-02T12:05:33;4.10;;;1.90;;
58354;SDS011;44160;49.080;19.302;2023-07-02T12:08:01;2.72;;;1.90;;
58354;SDS011;44160;49.080;19.302;2023-07-02T12:10:28;3.83;;;2.20;;
58354;SDS011;44160;49.080;19.302;2023-07-02T12:12:54;5.72;;;2.05;;
58354;SDS011;44160;49.080;19.302;2023-07-02T12:15:20;3.90;;;2.55;;
58354;SDS011;44160;49.080;19.302;2023-07-02T12:17:46;2.40;;;1.92;;
58354;SDS011;44160;49.080;19.302;2023-07-02T12:20:12;3.08;;;2.10;;
58354;SDS011;44160;49.080;19.302;2023-07-02T12:22:38;2.92;;;2.38;;
58354;SDS011;44160;49.080;19.302;2023-07-02T12:25:04;3.83;;;2.35;;
58354;SDS011;44160;49.080;19.302;2023-07-02T12:27:30;3.50;;;2.10;;
58354;SDS011;44160;49.080;19.302;2023-07-02T12:29:57;4.60;;;2.22;;
58354;SDS011;44160;49.080;19.302;2023-07-02T12:32:23;3.92;;;2.17;;
58354;SDS011;44160;49.080;19.302;2023-07-02T12:34:49;2.83;;;2.17;;
58354;SDS011;44160;49.080;19.302;2023-07-02T12:37:15;3.00;;;1.90;;
58354;SDS011;44160;49.080;19.302;2023-07-02T12:39:43;2.40;;;1.73;;
58354;SDS011;44160;49.080;19.302;2023-07-02T12:42:09;2.78;;;1.85;;
58354;SDS011;44160;49.080;19.302;2023-07-02T12:44:35;4.13;;;1.98;;
58354;SDS011;44160;49.080;19.302;2023-07-02T12:47:01;2.25;;;1.90;;
58354;SDS011;44160;49.080;19.302;2023-07-02T12:49:27;2.53;;;1.90;;
58354;SDS011;44160;49.080;19.302;2023-07-02T12:51:53;2.88;;;2.00;;
58354;SDS011;44160;49.080;19.302;2023-07-02T12:54:22;2.63;;;1.90;;
58354;SDS011;44160;49.080;19.302;2023-07-02T12:56:48;4.00;;;1.73;;
58354;SDS011;44160;49.080;19.302;2023-07-02T12:59:14;4.57;;;1.80;;
58354;SDS011;44160;49.080;19.302;2023-07-02T13:01:40;4.63;;;1.80;;
58354;SDS011;44160;49.080;19.302;2023-07-02T13:04:06;1.92;;;1.40;;
58354;SDS011;44160;49.080;19.302;2023-07-02T13:06:32;2.83;;;1.60;;
58354;SDS011;44160;49.080;19.302;2023-07-02T13:09:05;1.98;;;1.60;;
58354;SDS011;44160;49.080;19.302;2023-07-02T13:11:31;1.98;;;1.42;;
58354;SDS011;44160;49.080;19.302;2023-07-02T13:13:57;1.70;;;1.42;;
58354;SDS011;44160;49.080;19.302;2023-07-02T13:16:23;2.45;;;1.70;;
58354;SDS011;44160;49.080;19.302;2023-07-02T13:18:49;2.65;;;1.50;;
58354;SDS011;44160;49.080;19.302;2023-07-02T13:21:15;3.25;;;1.60;;
58354;SDS011;44160;49.080;19.302;2023-07-02T13:23:41;2.15;;;1.30;;
58354;SDS011;44160;49.080;19.302;2023-07-02T13:26:07;5.20;;;1.67;;
58354;SDS011;44160;49.080;19.302;2023-07-02T13:28:33;1.42;;;1.20;;
58354;SDS011;44160;49.080;19.302;2023-07-02T13:30:59;1.25;;;1.10;;
58354;SDS011;44160;49.080;19.302;2023-07-02T13:33:25;1.95;;;1.40;;
58354;SDS011;44160;49.080;19.302;2023-07-02T13:35:53;2.60;;;1.38;;
58354;SDS011;44160;49.080;19.302;2023-07-02T13:38:20;2.35;;;1.63;;
58354;SDS011;44160;49.080;19.302;2023-07-02T13:40:46;2.05;;;1.38;;
58354;SDS011;44160;49.080;19.302;2023-07-02T13:43:12;2.03;;;1.33;;
58354;SDS011;44160;49.080;19.302;2023-07-02T13:45:38;2.25;;;1.17;;
58354;SDS011;44160;49.080;19.302;2023-07-02T13:48:04;1.45;;;1.13;;
58354;SDS011;44160;49.080;19.302;2023-07-02T13:50:30;2.90;;;1.60;;
58354;SDS011;44160;49.080;19.302;2023-07-02T13:52:56;1.60;;;1.25;;
58354;SDS011;44160;49.080;19.302;2023-07-02T13:55:22;2.58;;;1.35;;
58354;SDS011;44160;49.080;19.302;2023-07-02T13:57:53;2.00;;;1.35;;
58354;SDS011;44160;49.080;19.302;2023-07-02T14:00:24;2.00;;;1.42;;
58354;SDS011;44160;49.080;19.302;2023-07-02T14:02:54;2.00;;;1.63;;
58354;SDS011;44160;49.080;19.302;2023-07-02T14:05:20;3.10;;;1.60;;
58354;SDS011;44160;49.080;19.302;2023-07-02T14:07:47;1.40;;;1.30;;
58354;SDS011;44160;49.080;19.302;2023-07-02T14:10:13;1.52;;;1.40;;
58354;SDS011;44160;49.080;19.302;2023-07-02T14:12:40;1.67;;;1.30;;
58354;SDS011;44160;49.080;19.302;2023-07-02T14:15:06;2.10;;;1.20;;
58354;SDS011;44160;49.080;19.302;2023-07-02T14:17:32;2.10;;;1.52;;
58354;SDS011;44160;49.080;19.302;2023-07-02T14:19:59;4.28;;;1.20;;
58354;SDS011;44160;49.080;19.302;2023-07-02T14:22:25;2.42;;;1.40;;
58354;SDS011;44160;49.080;19.302;2023-07-02T14:24:51;2.88;;;1.65;;
58354;SDS011;44160;49.080;19.302;2023-07-02T14:27:17;2.35;;;1.30;;
58354;SDS011;44160;49.080;19.302;2023-07-02T14:29:43;1.70;;;1.45;;
58354;SDS011;44160;49.080;19.302;2023-07-02T14:32:12;1.98;;;1.48;;